Hudson, Kentucky
Current Conditions -  °F | °C
As of 2:15 PM on Friday 31 Oct 2014 (Local Time) from KFTK Reporting Station
Overcast Overcast  
Wind Chill: 31°   Ceiling: 1500
Heat Index: 39°   Visibility: 9mi
Dew Point: 37°   Wind: 14mph
Humidity: 93%   Direction: 300°WNW
Pressure: 29.99"   Gusts: 21mph
Location:  37.65°N, 86.28°W
Report Text: KFTK 311915Z AUTO 30012G18KT 9SM BKN015 BKN022 OVC035 04/03 A2999 RMK AO2 RAE1905 CIG 014V023
Loading
Personal Weather Stations






























Interactive Weather Map
Tropical Storm Tracking
New forecast layout! Learn more

10-Day Weather Forecast

Advertisements
Track Severe Weather on mobile